sensor_id;sensor_type;location;lat;lon;timestamp;P1;durP1;ratioP1;P2;durP2;ratioP2
61570;SDS011;47463;49.884;10.010;2023-06-10T00:00:00;11.9;;;10.8;;
61570;SDS011;47463;49.884;10.010;2023-06-10T00:05:00;13.5;;;11.8;;
61570;SDS011;47463;49.884;10.010;2023-06-10T00:10:00;13.5;;;11.8;;
61570;SDS011;47463;49.884;10.010;2023-06-10T00:15:00;12.6;;;10.7;;
61570;SDS011;47463;49.884;10.010;2023-06-10T00:20:00;13.6;;;11.2;;
61570;SDS011;47463;49.884;10.010;2023-06-10T00:25:00;15;;;11.3;;
61570;SDS011;47463;49.884;10.010;2023-06-10T00:30:00;12.9;;;10.5;;
61570;SDS011;47463;49.884;10.010;2023-06-10T00:35:00;15.3;;;11.9;;
61570;SDS011;47463;49.884;10.010;2023-06-10T00:40:00;15.3;;;11.9;;
61570;SDS011;47463;49.884;10.010;2023-06-10T00:45:00;15.9;;;12.2;;
61570;SDS011;47463;49.884;10.010;2023-06-10T00:50:00;14.4;;;11.3;;
61570;SDS011;47463;49.884;10.010;2023-06-10T00:55:00;14.4;;;11.1;;
61570;SDS011;47463;49.884;10.010;2023-06-10T01:00:00;14.9;;;11;;
61570;SDS011;47463;49.884;10.010;2023-06-10T01:05:00;16.7;;;11.7;;
61570;SDS011;47463;49.884;10.010;2023-06-10T01:10:01;16.7;;;11.7;;
61570;SDS011;47463;49.884;10.010;2023-06-10T01:15:00;14;;;11.8;;
61570;SDS011;47463;49.884;10.010;2023-06-10T01:20:00;17.2;;;11.7;;
61570;SDS011;47463;49.884;10.010;2023-06-10T01:25:00;12.3;;;11;;
61570;SDS011;47463;49.884;10.010;2023-06-10T01:30:02;13.1;;;10.8;;
61570;SDS011;47463;49.884;10.010;2023-06-10T01:35:00;13.5;;;11.7;;
61570;SDS011;47463;49.884;10.010;2023-06-10T01:40:00;13.5;;;11.7;;
61570;SDS011;47463;49.884;10.010;2023-06-10T01:45:00;14;;;11.3;;
61570;SDS011;47463;49.884;10.010;2023-06-10T01:50:00;17.8;;;11.7;;
61570;SDS011;47463;49.884;10.010;2023-06-10T01:55:00;12.9;;;10.8;;
61570;SDS011;47463;49.884;10.010;2023-06-10T02:00:00;15;;;10.8;;
61570;SDS011;47463;49.884;10.010;2023-06-10T02:05:00;14.8;;;11.4;;
61570;SDS011;47463;49.884;10.010;2023-06-10T02:10:00;14.8;;;11.4;;
61570;SDS011;47463;49.884;10.010;2023-06-10T02:15:00;13.6;;;11.1;;
61570;SDS011;47463;49.884;10.010;2023-06-10T02:20:00;11.6;;;10.2;;
61570;SDS011;47463;49.884;10.010;2023-06-10T02:25:00;13.9;;;10.3;;
61570;SDS011;47463;49.884;10.010;2023-06-10T02:30:00;11.4;;;10.2;;
61570;SDS011;47463;49.884;10.010;2023-06-10T02:35:00;11.6;;;9.9;;
61570;SDS011;47463;49.884;10.010;2023-06-10T02:40:00;11.6;;;9.9;;
61570;SDS011;47463;49.884;10.010;2023-06-10T02:45:00;12.3;;;10.8;;
61570;SDS011;47463;49.884;10.010;2023-06-10T02:50:00;13.4;;;11.2;;
61570;SDS011;47463;49.884;10.010;2023-06-10T02:55:00;13.6;;;10.3;;
61570;SDS011;47463;49.884;10.010;2023-06-10T03:00:00;13.1;;;11.2;;
61570;SDS011;47463;49.884;10.010;2023-06-10T03:05:00;12.3;;;10.9;;
61570;SDS011;47463;49.884;10.010;2023-06-10T03:10:00;12.3;;;10.9;;
61570;SDS011;47463;49.884;10.010;2023-06-10T03:15:00;13.9;;;11;;
61570;SDS011;47463;49.884;10.010;2023-06-10T03:20:00;12.8;;;11.4;;
61570;SDS011;47463;49.884;10.010;2023-06-10T03:25:00;15.1;;;10.7;;
61570;SDS011;47463;49.884;10.010;2023-06-10T03:30:00;11.6;;;10.4;;
61570;SDS011;47463;49.884;10.010;2023-06-10T03:35:00;12.8;;;10.6;;
61570;SDS011;47463;49.884;10.010;2023-06-10T03:40:00;12.8;;;10.6;;
61570;SDS011;47463;49.884;10.010;2023-06-10T03:45:00;11.1;;;9.9;;
61570;SDS011;47463;49.884;10.010;2023-06-10T03:50:00;13;;;10;;
61570;SDS011;47463;49.884;10.010;2023-06-10T03:55:00;13.1;;;10.2;;
61570;SDS011;47463;49.884;10.010;2023-06-10T04:00:00;13.5;;;10.5;;
61570;SDS011;47463;49.884;10.010;2023-06-10T04:05:00;12.5;;;10;;
61570;SDS011;47463;49.884;10.010;2023-06-10T04:10:00;12.5;;;10;;
61570;SDS011;47463;49.884;10.010;2023-06-10T04:15:00;12.9;;;10.4;;
61570;SDS011;47463;49.884;10.010;2023-06-10T04:20:00;11.6;;;10.1;;
61570;SDS011;47463;49.884;10.010;2023-06-10T04:25:00;11.1;;;9.4;;
61570;SDS011;47463;49.884;10.010;2023-06-10T04:30:00;10.8;;;9;;
61570;SDS011;47463;49.884;10.010;2023-06-10T04:35:00;10.2;;;9.2;;
61570;SDS011;47463;49.884;10.010;2023-06-10T04:40:00;10.2;;;9.2;;
61570;SDS011;47463;49.884;10.010;2023-06-10T04:45:00;15.6;;;9.8;;
61570;SDS011;47463;49.884;10.010;2023-06-10T04:50:00;11.2;;;9.8;;
61570;SDS011;47463;49.884;10.010;2023-06-10T04:55:00;12.3;;;9.9;;
61570;SDS011;47463;49.884;10.010;2023-06-10T05:00:00;10.4;;;9.2;;
61570;SDS011;47463;49.884;10.010;2023-06-10T05:05:00;12.1;;;9.8;;
61570;SDS011;47463;49.884;10.010;2023-06-10T05:10:00;12.1;;;9.8;;
61570;SDS011;47463;49.884;10.010;2023-06-10T05:15:00;11.3;;;9.4;;
61570;SDS011;47463;49.884;10.010;2023-06-10T05:20:00;12;;;9.7;;
61570;SDS011;47463;49.884;10.010;2023-06-10T05:25:00;13.6;;;8.9;;
61570;SDS011;47463;49.884;10.010;2023-06-10T05:30:00;12.3;;;10.9;;
61570;SDS011;47463;49.884;10.010;2023-06-10T05:35:00;11.9;;;10;;
61570;SDS011;47463;49.884;10.010;2023-06-10T05:40:00;11.9;;;10;;
61570;SDS011;47463;49.884;10.010;2023-06-10T05:45:00;12.8;;;10.3;;
61570;SDS011;47463;49.884;10.010;2023-06-10T05:50:00;12;;;10.3;;
61570;SDS011;47463;49.884;10.010;2023-06-10T05:55:00;10.5;;;9.4;;
61570;SDS011;47463;49.884;10.010;2023-06-10T06:00:00;11.2;;;10;;
61570;SDS011;47463;49.884;10.010;2023-06-10T06:05:00;11.9;;;10.7;;
61570;SDS011;47463;49.884;10.010;2023-06-10T06:10:00;11.9;;;10.7;;
61570;SDS011;47463;49.884;10.010;2023-06-10T06:15:00;12.6;;;10.3;;
61570;SDS011;47463;49.884;10.010;2023-06-10T06:20:00;11.2;;;10;;
61570;SDS011;47463;49.884;10.010;2023-06-10T06:25:00;16.4;;;10.8;;
61570;SDS011;47463;49.884;10.010;2023-06-10T06:30:00;12.7;;;11.4;;
61570;SDS011;47463;49.884;10.010;2023-06-10T06:35:00;12.4;;;11.1;;
61570;SDS011;47463;49.884;10.010;2023-06-10T06:40:00;12.4;;;11.1;;
61570;SDS011;47463;49.884;10.010;2023-06-10T06:45:00;18.6;;;11.2;;
61570;SDS011;47463;49.884;10.010;2023-06-10T06:50:00;14.3;;;11.5;;
61570;SDS011;47463;49.884;10.010;2023-06-10T06:55:00;13.4;;;11.8;;
61570;SDS011;47463;49.884;10.010;2023-06-10T07:00:00;16;;;12.5;;
61570;SDS011;47463;49.884;10.010;2023-06-10T07:05:00;13.1;;;11.6;;
61570;SDS011;47463;49.884;10.010;2023-06-10T07:10:00;13.1;;;11.6;;
61570;SDS011;47463;49.884;10.010;2023-06-10T07:15:00;14.1;;;12;;
61570;SDS011;47463;49.884;10.010;2023-06-10T07:20:00;15.6;;;13.2;;
61570;SDS011;47463;49.884;10.010;2023-06-10T07:25:00;14.3;;;12.8;;
61570;SDS011;47463;49.884;10.010;2023-06-10T07:30:00;13.2;;;11.8;;
61570;SDS011;47463;49.884;10.010;2023-06-10T07:35:00;14.7;;;12.8;;
61570;SDS011;47463;49.884;10.010;2023-06-10T07:40:00;14.7;;;12.8;;
61570;SDS011;47463;49.884;10.010;2023-06-10T07:45:00;14.6;;;12.8;;
61570;SDS011;47463;49.884;10.010;2023-06-10T07:50:00;13.5;;;12;;
61570;SDS011;47463;49.884;10.010;2023-06-10T07:55:00;14.6;;;12.4;;
61570;SDS011;47463;49.884;10.010;2023-06-10T08:00:00;14.1;;;12.6;;
61570;SDS011;47463;49.884;10.010;2023-06-10T08:05:00;11.8;;;10.7;;
61570;SDS011;47463;49.884;10.010;2023-06-10T08:10:00;11.8;;;10.7;;
61570;SDS011;47463;49.884;10.010;2023-06-10T08:15:00;13.4;;;11;;
61570;SDS011;47463;49.884;10.010;2023-06-10T08:20:00;10.3;;;8.9;;
61570;SDS011;47463;49.884;10.010;2023-06-10T08:25:00;13.7;;;11;;
61570;SDS011;47463;49.884;10.010;2023-06-10T08:30:00;11.7;;;9.8;;
61570;SDS011;47463;49.884;10.010;2023-06-10T08:35:00;12.6;;;10.4;;
61570;SDS011;47463;49.884;10.010;2023-06-10T08:40:00;12.6;;;10.4;;
61570;SDS011;47463;49.884;10.010;2023-06-10T08:45:00;11.6;;;10.1;;
61570;SDS011;47463;49.884;10.010;2023-06-10T08:50:01;12.5;;;9.1;;
61570;SDS011;47463;49.884;10.010;2023-06-10T08:55:01;9.6;;;8.2;;
61570;SDS011;47463;49.884;10.010;2023-06-10T09:00:00;10.1;;;8.6;;
61570;SDS011;47463;49.884;10.010;2023-06-10T09:05:00;10.9;;;9.1;;
61570;SDS011;47463;49.884;10.010;2023-06-10T09:10:00;10.9;;;9.1;;
61570;SDS011;47463;49.884;10.010;2023-06-10T09:15:00;9.5;;;8.5;;
61570;SDS011;47463;49.884;10.010;2023-06-10T09:20:00;9;;;8.1;;
61570;SDS011;47463;49.884;10.010;2023-06-10T09:25:03;8.9;;;7.7;;
61570;SDS011;47463;49.884;10.010;2023-06-10T09:30:00;11.7;;;7.2;;
61570;SDS011;47463;49.884;10.010;2023-06-10T09:35:00;8.2;;;7.5;;
61570;SDS011;47463;49.884;10.010;2023-06-10T09:40:00;8.2;;;7.5;;
61570;SDS011;47463;49.884;10.010;2023-06-10T09:45:00;8.3;;;7.5;;
61570;SDS011;47463;49.884;10.010;2023-06-10T09:50:00;10.1;;;7.9;;
61570;SDS011;47463;49.884;10.010;2023-06-10T09:55:00;7.3;;;6.5;;
61570;SDS011;47463;49.884;10.010;2023-06-10T10:00:02;7.1;;;6;;
61570;SDS011;47463;49.884;10.010;2023-06-10T10:05:02;7.7;;;6.6;;
61570;SDS011;47463;49.884;10.010;2023-06-10T10:10:00;7.7;;;6.6;;
61570;SDS011;47463;49.884;10.010;2023-06-10T10:15:00;8.2;;;6.8;;
61570;SDS011;47463;49.884;10.010;2023-06-10T10:20:01;7.9;;;6.7;;
61570;SDS011;47463;49.884;10.010;2023-06-10T10:25:01;10.2;;;7.5;;
61570;SDS011;47463;49.884;10.010;2023-06-10T10:30:00;10.4;;;7.7;;
61570;SDS011;47463;49.884;10.010;2023-06-10T10:35:01;7.4;;;6.7;;
61570;SDS011;47463;49.884;10.010;2023-06-10T10:40:00;7.4;;;6.7;;
61570;SDS011;47463;49.884;10.010;2023-06-10T10:45:00;8.4;;;6.8;;
61570;SDS011;47463;49.884;10.010;2023-06-10T10:50:00;8.8;;;8;;
61570;SDS011;47463;49.884;10.010;2023-06-10T10:55:00;9;;;7;;
61570;SDS011;47463;49.884;10.010;2023-06-10T11:00:00;8.3;;;7.3;;
61570;SDS011;47463;49.884;10.010;2023-06-10T11:05:00;9.1;;;7.3;;
61570;SDS011;47463;49.884;10.010;2023-06-10T11:10:00;9.1;;;7.3;;
61570;SDS011;47463;49.884;10.010;2023-06-10T11:15:00;8.1;;;7.3;;
61570;SDS011;47463;49.884;10.010;2023-06-10T11:20:00;8.3;;;7.1;;
61570;SDS011;47463;49.884;10.010;2023-06-10T11:25:00;8.4;;;7.3;;
61570;SDS011;47463;49.884;10.010;2023-06-10T11:30:17;8.7;;;6.9;;
61570;SDS011;47463;49.884;10.010;2023-06-10T11:35:00;8.9;;;7.2;;
61570;SDS011;47463;49.884;10.010;2023-06-10T11:40:00;8.9;;;7.2;;
61570;SDS011;47463;49.884;10.010;2023-06-10T11:45:00;7.6;;;6.8;;
61570;SDS011;47463;49.884;10.010;2023-06-10T11:50:00;8.2;;;6.8;;
61570;SDS011;47463;49.884;10.010;2023-06-10T11:55:00;7.6;;;6.8;;
61570;SDS011;47463;49.884;10.010;2023-06-10T12:00:03;8.5;;;7.1;;
61570;SDS011;47463;49.884;10.010;2023-06-10T12:05:09;9.2;;;7.5;;
61570;SDS011;47463;49.884;10.010;2023-06-10T12:10:00;9.2;;;7.5;;
61570;SDS011;47463;49.884;10.010;2023-06-10T12:15:00;7;;;6.3;;
61570;SDS011;47463;49.884;10.010;2023-06-10T12:20:00;7.6;;;6.7;;
61570;SDS011;47463;49.884;10.010;2023-06-10T12:25:00;7.8;;;6.5;;
61570;SDS011;47463;49.884;10.010;2023-06-10T12:30:00;8.7;;;6.6;;
61570;SDS011;47463;49.884;10.010;2023-06-10T12:35:01;6.9;;;6.2;;
61570;SDS011;47463;49.884;10.010;2023-06-10T12:40:00;6.9;;;6.2;;
61570;SDS011;47463;49.884;10.010;2023-06-10T12:45:00;7.3;;;6.6;;
61570;SDS011;47463;49.884;10.010;2023-06-10T12:50:00;6.8;;;6.1;;
61570;SDS011;47463;49.884;10.010;2023-06-10T12:55:00;7.1;;;5.8;;
61570;SDS011;47463;49.884;10.010;2023-06-10T13:00:00;9.8;;;7.1;;
61570;SDS011;47463;49.884;10.010;2023-06-10T13:05:00;6.9;;;6.2;;
61570;SDS011;47463;49.884;10.010;2023-06-10T13:10:00;6.9;;;6.2;;
61570;SDS011;47463;49.884;10.010;2023-06-10T13:15:00;7.6;;;6.9;;
61570;SDS011;47463;49.884;10.010;2023-06-10T13:20:00;7.6;;;4.6;;
61570;SDS011;47463;49.884;10.010;2023-06-10T13:25:00;8.3;;;6.5;;
61570;SDS011;47463;49.884;10.010;2023-06-10T13:30:00;7.8;;;6.3;;
61570;SDS011;47463;49.884;10.010;2023-06-10T13:35:00;9.2;;;7;;
61570;SDS011;47463;49.884;10.010;2023-06-10T13:40:00;9.2;;;7;;
61570;SDS011;47463;49.884;10.010;2023-06-10T13:45:00;7;;;6.3;;
61570;SDS011;47463;49.884;10.010;2023-06-10T13:50:00;7.1;;;6.5;;
61570;SDS011;47463;49.884;10.010;2023-06-10T13:55:00;6.8;;;6.2;;
61570;SDS011;47463;49.884;10.010;2023-06-10T14:00:00;7.5;;;6.7;;
61570;SDS011;47463;49.884;10.010;2023-06-10T14:05:00;6.9;;;6.2;;
61570;SDS011;47463;49.884;10.010;2023-06-10T14:10:00;6.9;;;6.2;;
61570;SDS011;47463;49.884;10.010;2023-06-10T14:15:00;8.4;;;6.2;;
61570;SDS011;47463;49.884;10.010;2023-06-10T14:20:00;6.7;;;6.1;;
61570;SDS011;47463;49.884;10.010;2023-06-10T14:25:00;7;;;6.3;;
61570;SDS011;47463;49.884;10.010;2023-06-10T14:30:00;7.4;;;6.7;;
61570;SDS011;47463;49.884;10.010;2023-06-10T14:35:00;6.9;;;6.2;;
61570;SDS011;47463;49.884;10.010;2023-06-10T14:40:00;6.9;;;6.2;;
61570;SDS011;47463;49.884;10.010;2023-06-10T14:45:00;8;;;6.8;;
61570;SDS011;47463;49.884;10.010;2023-06-10T14:50:00;7.5;;;6.8;;
61570;SDS011;47463;49.884;10.010;2023-06-10T14:55:00;7.4;;;6.6;;
61570;SDS011;47463;49.884;10.010;2023-06-10T15:00:00;6.6;;;5.9;;
61570;SDS011;47463;49.884;10.010;2023-06-10T15:05:00;8;;;6.5;;
61570;SDS011;47463;49.884;10.010;2023-06-10T15:10:00;8;;;6.5;;
61570;SDS011;47463;49.884;10.010;2023-06-10T15:15:00;10.3;;;9.3;;
61570;SDS011;47463;49.884;10.010;2023-06-10T15:20:00;11.3;;;10.1;;
61570;SDS011;47463;49.884;10.010;2023-06-10T15:25:00;9.2;;;8.2;;
61570;SDS011;47463;49.884;10.010;2023-06-10T15:30:00;9.2;;;8.3;;
61570;SDS011;47463;49.884;10.010;2023-06-10T15:35:00;11.3;;;9.7;;
61570;SDS011;47463;49.884;10.010;2023-06-10T15:40:00;11.3;;;9.7;;
61570;SDS011;47463;49.884;10.010;2023-06-10T15:45:00;10.1;;;9.1;;
61570;SDS011;47463;49.884;10.010;2023-06-10T15:50:00;12.2;;;9.6;;
61570;SDS011;47463;49.884;10.010;2023-06-10T15:55:00;10.8;;;9.4;;
61570;SDS011;47463;49.884;10.010;2023-06-10T16:00:00;10.9;;;9.8;;
61570;SDS011;47463;49.884;10.010;2023-06-10T16:05:00;12.8;;;9.9;;
61570;SDS011;47463;49.884;10.010;2023-06-10T16:10:00;12.8;;;9.9;;
61570;SDS011;47463;49.884;10.010;2023-06-10T16:15:00;11.3;;;10.3;;
61570;SDS011;47463;49.884;10.010;2023-06-10T16:20:00;13.5;;;10.1;;
61570;SDS011;47463;49.884;10.010;2023-06-10T16:25:00;10.6;;;9.5;;
61570;SDS011;47463;49.884;10.010;2023-06-10T16:30:00;11.5;;;10.5;;
61570;SDS011;47463;49.884;10.010;2023-06-10T16:35:00;12.4;;;11.2;;
61570;SDS011;47463;49.884;10.010;2023-06-10T16:40:00;12.4;;;11.2;;
61570;SDS011;47463;49.884;10.010;2023-06-10T16:45:00;13.4;;;12;;
61570;SDS011;47463;49.884;10.010;2023-06-10T16:50:00;13;;;11.7;;
61570;SDS011;47463;49.884;10.010;2023-06-10T16:55:00;14;;;12.2;;
61570;SDS011;47463;49.884;10.010;2023-06-10T17:00:00;13;;;11.7;;
61570;SDS011;47463;49.884;10.010;2023-06-10T17:05:00;12.9;;;11.5;;
61570;SDS011;47463;49.884;10.010;2023-06-10T17:10:00;12.9;;;11.5;;
61570;SDS011;47463;49.884;10.010;2023-06-10T17:15:00;12.2;;;11;;
61570;SDS011;47463;49.884;10.010;2023-06-10T17:20:00;13;;;11.6;;
61570;SDS011;47463;49.884;10.010;2023-06-10T17:25:00;12;;;10.8;;
61570;SDS011;47463;49.884;10.010;2023-06-10T17:30:00;13.6;;;10.7;;
61570;SDS011;47463;49.884;10.010;2023-06-10T17:35:00;12.3;;;11.1;;
61570;SDS011;47463;49.884;10.010;2023-06-10T17:40:00;12.3;;;11.1;;
61570;SDS011;47463;49.884;10.010;2023-06-10T17:45:00;12.7;;;11.4;;
61570;SDS011;47463;49.884;10.010;2023-06-10T17:50:00;12.4;;;11.2;;
61570;SDS011;47463;49.884;10.010;2023-06-10T17:55:00;12;;;10.8;;
61570;SDS011;47463;49.884;10.010;2023-06-10T18:00:00;11.9;;;10.8;;
61570;SDS011;47463;49.884;10.010;2023-06-10T18:05:00;13.4;;;12;;
61570;SDS011;47463;49.884;10.010;2023-06-10T18:10:00;13.4;;;12;;
61570;SDS011;47463;49.884;10.010;2023-06-10T18:15:00;11.6;;;10.3;;
61570;SDS011;47463;49.884;10.010;2023-06-10T18:20:00;11.8;;;10.2;;
61570;SDS011;47463;49.884;10.010;2023-06-10T18:25:00;10.8;;;9.7;;
61570;SDS011;47463;49.884;10.010;2023-06-10T18:30:00;12.9;;;10;;
61570;SDS011;47463;49.884;10.010;2023-06-10T18:35:00;9.4;;;8.5;;
61570;SDS011;47463;49.884;10.010;2023-06-10T18:40:00;9.4;;;8.5;;
61570;SDS011;47463;49.884;10.010;2023-06-10T18:45:00;12.6;;;8.6;;
61570;SDS011;47463;49.884;10.010;2023-06-10T18:50:00;9.9;;;8.6;;
61570;SDS011;47463;49.884;10.010;2023-06-10T18:55:00;9.1;;;8.1;;
61570;SDS011;47463;49.884;10.010;2023-06-10T19:00:00;9.5;;;8.5;;
61570;SDS011;47463;49.884;10.010;2023-06-10T19:05:00;10.9;;;8.7;;
61570;SDS011;47463;49.884;10.010;2023-06-10T19:10:00;10.9;;;8.7;;
61570;SDS011;47463;49.884;10.010;2023-06-10T19:15:00;10;;;8.9;;
61570;SDS011;47463;49.884;10.010;2023-06-10T19:20:00;11.6;;;9.1;;
61570;SDS011;47463;49.884;10.010;2023-06-10T19:25:00;10.4;;;9.3;;
61570;SDS011;47463;49.884;10.010;2023-06-10T19:30:00;10.1;;;9.1;;
61570;SDS011;47463;49.884;10.010;2023-06-10T19:35:00;11.4;;;9.7;;
61570;SDS011;47463;49.884;10.010;2023-06-10T19:40:00;11.4;;;9.7;;
61570;SDS011;47463;49.884;10.010;2023-06-10T19:45:00;13.6;;;10.6;;
61570;SDS011;47463;49.884;10.010;2023-06-10T19:50:00;12.4;;;9.6;;
61570;SDS011;47463;49.884;10.010;2023-06-10T19:55:00;12;;;10.3;;
61570;SDS011;47463;49.884;10.010;2023-06-10T20:00:00;12.6;;;10.5;;
61570;SDS011;47463;49.884;10.010;2023-06-10T20:05:00;11.4;;;10.2;;
61570;SDS011;47463;49.884;10.010;2023-06-10T20:10:00;11.4;;;10.2;;
61570;SDS011;47463;49.884;10.010;2023-06-10T20:15:00;11.2;;;9.7;;
61570;SDS011;47463;49.884;10.010;2023-06-10T20:20:00;13.4;;;10.6;;
61570;SDS011;47463;49.884;10.010;2023-06-10T20:25:00;13.1;;;10.6;;
61570;SDS011;47463;49.884;10.010;2023-06-10T20:30:00;11.5;;;10.5;;
61570;SDS011;47463;49.884;10.010;2023-06-10T20:35:00;13.2;;;11.3;;
61570;SDS011;47463;49.884;10.010;2023-06-10T20:40:00;13.2;;;11.3;;
61570;SDS011;47463;49.884;10.010;2023-06-10T20:45:00;12.7;;;10.4;;
61570;SDS011;47463;49.884;10.010;2023-06-10T20:50:00;12.2;;;10.6;;
61570;SDS011;47463;49.884;10.010;2023-06-10T20:55:00;11.9;;;10.7;;
61570;SDS011;47463;49.884;10.010;2023-06-10T21:00:00;11.4;;;10.2;;
61570;SDS011;47463;49.884;10.010;2023-06-10T21:05:00;11.9;;;10.7;;
61570;SDS011;47463;49.884;10.010;2023-06-10T21:10:00;11.9;;;10.7;;
61570;SDS011;47463;49.884;10.010;2023-06-10T21:15:00;13.6;;;11.7;;
61570;SDS011;47463;49.884;10.010;2023-06-10T21:20:00;13.6;;;11.7;;
61570;SDS011;47463;49.884;10.010;2023-06-10T21:25:00;14.2;;;11.1;;
61570;SDS011;47463;49.884;10.010;2023-06-10T21:30:00;11.6;;;10.5;;
61570;SDS011;47463;49.884;10.010;2023-06-10T21:35:00;14.3;;;10.7;;
61570;SDS011;47463;49.884;10.010;2023-06-10T21:40:00;14.3;;;10.7;;
61570;SDS011;47463;49.884;10.010;2023-06-10T21:45:00;12.9;;;11.5;;
61570;SDS011;47463;49.884;10.010;2023-06-10T21:50:00;13.7;;;11.1;;
61570;SDS011;47463;49.884;10.010;2023-06-10T21:55:00;13.2;;;10.3;;
61570;SDS011;47463;49.884;10.010;2023-06-10T22:00:00;15;;;10.6;;
61570;SDS011;47463;49.884;10.010;2023-06-10T22:05:00;12.5;;;10.9;;
61570;SDS011;47463;49.884;10.010;2023-06-10T22:10:00;12.5;;;10.9;;
61570;SDS011;47463;49.884;10.010;2023-06-10T22:15:00;13.3;;;10.7;;
61570;SDS011;47463;49.884;10.010;2023-06-10T22:20:00;11.9;;;10.7;;
61570;SDS011;47463;49.884;10.010;2023-06-10T22:25:00;12.2;;;10.9;;
61570;SDS011;47463;49.884;10.010;2023-06-10T22:30:00;14.8;;;11.2;;
61570;SDS011;47463;49.884;10.010;2023-06-10T22:35:00;13;;;11.4;;
61570;SDS011;47463;49.884;10.010;2023-06-10T22:40:00;13;;;11.4;;
61570;SDS011;47463;49.884;10.010;2023-06-10T22:45:00;12;;;10.8;;
61570;SDS011;47463;49.884;10.010;2023-06-10T22:50:00;13.6;;;10.9;;
61570;SDS011;47463;49.884;10.010;2023-06-10T22:55:00;12.6;;;11.2;;
61570;SDS011;47463;49.884;10.010;2023-06-10T23:00:00;13.6;;;11.5;;
61570;SDS011;47463;49.884;10.010;2023-06-10T23:05:00;14;;;10.6;;
61570;SDS011;47463;49.884;10.010;2023-06-10T23:10:00;14;;;10.6;;
61570;SDS011;47463;49.884;10.010;2023-06-10T23:15:00;12.4;;;11.1;;
61570;SDS011;47463;49.884;10.010;2023-06-10T23:20:00;11.7;;;10.6;;
61570;SDS011;47463;49.884;10.010;2023-06-10T23:25:00;12.3;;;11.1;;
61570;SDS011;47463;49.884;10.010;2023-06-10T23:30:00;12.1;;;10.8;;
61570;SDS011;47463;49.884;10.010;2023-06-10T23:35:00;13.6;;;11.3;;
61570;SDS011;47463;49.884;10.010;2023-06-10T23:40:00;13.6;;;11.3;;
61570;SDS011;47463;49.884;10.010;2023-06-10T23:45:00;12.9;;;11.6;;
61570;SDS011;47463;49.884;10.010;2023-06-10T23:50:00;12.8;;;11.5;;
61570;SDS011;47463;49.884;10.010;2023-06-10T23:55:00;11.7;;;10.5;;
